Elon, North Carolina
Current Conditions -  °F | °C
As of 9:40 AM on Thursday 27 Nov 2014 (Local Time) from KBUY Reporting Station
Moderate Rain Moderate Rain  
Wind Chill: 38°   Ceiling: 700
Heat Index: 41°   Visibility: 3mi
Dew Point: 38°   Wind: 5mph
Humidity: 89%   Direction: 310°NW
Pressure: 30.04"   Gusts: NA
Location:  36.1°N, 79.51°W
Report Text: KBUY 271440Z AUTO 31004KT 3SM RA BR BKN007 OVC015 05/03 A3004 RMK AO2 P0004 T00500033
Loading
Personal Weather Stations






























Interactive Weather Map New forecast layout! Learn more

10-Day Weather Forecast

Advertisements
Track Severe Weather on mobile